Time;durP1;ratioP1;P1;durP2;ratioP2;P2;SDS_P1;SDS_P2;PMS_P1;PMS_P2;Temp;Humidity;BMP_temperature;BMP_pressure;BME280_temperature;BME280_humidity;BME280_pressure;Samples;Min_cycle;Max_cycle;Signal;HPM_P1;HPM_P2
2023/01/09 00:01:14;;;;;;;95.10;33.60;;;;;;;-128.00;-1.00;-1.00;100904;1306;1003882;-33
2023/01/09 00:03:40;;;;;;;74.80;26.60;;;;;;;-128.00;-1.00;-1.00;100888;1306;1004732;-30
2023/01/09 00:06:06;;;;;;;68.50;26.70;;;;;;;-128.00;-1.00;-1.00;100885;1306;1004640;-35
2023/01/09 00:08:32;;;;;;;55.40;23.40;;;;;;;-128.00;-1.00;-1.00;100914;1306;1004454;-34
2023/01/09 00:10:57;;;;;;;51.90;21.70;;;;;;;-128.00;-1.00;-1.00;100887;1306;1003618;-34
2023/01/09 00:13:23;;;;;;;62.00;21.50;;;;;;;-128.00;-1.00;-1.00;100903;1306;1005421;-34
2023/01/09 00:15:49;;;;;;;62.90;21.70;;;;;;;-128.00;-1.00;-1.00;100882;1306;1004542;-34
2023/01/09 00:18:15;;;;;;;59.40;23.80;;;;;;;-128.00;-1.00;-1.00;100942;1306;1005178;-35
2023/01/09 00:20:40;;;;;;;46.40;20.40;;;;;;;-128.00;-1.00;-1.00;100879;1306;1004628;-34
2023/01/09 00:23:06;;;;;;;47.90;21.70;;;;;;;-128.00;-1.00;-1.00;100718;1306;1005082;-30
2023/01/09 00:25:32;;;;;;;73.90;22.50;;;;;;;-128.00;-1.00;-1.00;100675;1306;1004339;-30
2023/01/09 00:27:58;;;;;;;66.00;23.80;;;;;;;-128.00;-1.00;-1.00;100822;1306;1005061;-34
2023/01/09 00:30:24;;;;;;;70.60;24.40;;;;;;;-128.00;-1.00;-1.00;100716;1306;1004404;-29
2023/01/09 00:32:49;;;;;;;120.30;39.40;;;;;;;-128.00;-1.00;-1.00;100851;1306;1004884;-34
2023/01/09 00:35:16;;;;;;;102.50;32.10;;;;;;;-128.00;-1.00;-1.00;100725;1306;1004089;-34
2023/01/09 00:37:41;;;;;;;105.00;37.60;;;;;;;-128.00;-1.00;-1.00;100907;1306;1004438;-34
2023/01/09 00:40:08;;;;;;;81.20;30.40;;;;;;;-128.00;-1.00;-1.00;100946;1306;1004339;-35
2023/01/09 00:42:35;;;;;;;60.60;27.30;;;;;;;-128.00;-1.00;-1.00;100939;1306;1004797;-30
2023/01/09 00:45:03;;;;;;;73.90;29.90;;;;;;;-128.00;-1.00;-1.00;100776;1306;1004018;-30
2023/01/09 00:47:31;;;;;;;66.00;28.20;;;;;;;-128.00;-1.00;-1.00;100898;1306;1004561;-34
2023/01/09 00:49:59;;;;;;;79.50;31.60;;;;;;;-128.00;-1.00;-1.00;100935;1306;1004888;-35
2023/01/09 00:52:26;;;;;;;70.50;30.70;;;;;;;-128.00;-1.00;-1.00;100938;1307;1004039;-34
2023/01/09 00:54:52;;;;;;;92.10;41.60;;;;;;;-128.00;-1.00;-1.00;100912;1307;1004574;-34
2023/01/09 00:57:18;;;;;;;79.60;32.60;;;;;;;-128.00;-1.00;-1.00;100883;1306;1004129;-29
2023/01/09 00:59:44;;;;;;;73.30;31.90;;;;;;;-128.00;-1.00;-1.00;100913;1306;1004078;-30
2023/01/09 01:02:09;;;;;;;81.10;31.70;;;;;;;-128.00;-1.00;-1.00;100893;1306;1004713;-37
2023/01/09 01:09:34;;;;;;;73.40;28.20;;;;;;;-128.00;-1.00;-1.00;100894;1307;1003585;-30
2023/01/09 01:12:00;;;;;;;56.20;25.40;;;;;;;-128.00;-1.00;-1.00;100707;1307;1004688;-34
2023/01/09 01:14:26;;;;;;;64.70;29.60;;;;;;;-128.00;-1.00;-1.00;100865;1306;1003984;-29
2023/01/09 01:16:51;;;;;;;176.50;74.30;;;;;;;-128.00;-1.00;-1.00;100847;1306;1004743;-30
2023/01/09 01:19:17;;;;;;;102.30;45.40;;;;;;;-128.00;-1.00;-1.00;100876;1306;1004930;-34
2023/01/09 01:21:43;;;;;;;62.90;27.80;;;;;;;-128.00;-1.00;-1.00;100934;1306;1004700;-30
2023/01/09 01:24:09;;;;;;;51.70;24.50;;;;;;;-128.00;-1.00;-1.00;100896;1307;1004547;-30
2023/01/09 01:26:35;;;;;;;43.00;19.00;;;;;;;-128.00;-1.00;-1.00;100935;1306;1005212;-31
2023/01/09 01:29:01;;;;;;;29.60;15.30;;;;;;;-128.00;-1.00;-1.00;100984;1306;1003461;-33
2023/01/09 01:31:27;;;;;;;38.50;16.30;;;;;;;-128.00;-1.00;-1.00;100885;1306;1004503;-28
2023/01/09 01:33:52;;;;;;;39.90;16.90;;;;;;;-128.00;-1.00;-1.00;100843;1307;1005568;-29
2023/01/09 01:36:18;;;;;;;43.10;17.80;;;;;;;-128.00;-1.00;-1.00;100743;1307;1004278;-33
2023/01/09 01:38:45;;;;;;;47.10;18.70;;;;;;;-128.00;-1.00;-1.00;100915;1306;1003767;-35
2023/01/09 01:41:11;;;;;;;30.00;14.10;;;;;;;-128.00;-1.00;-1.00;100878;1306;1005097;-34
2023/01/09 01:43:53;;;;;;;33.40;14.10;;;;;;;-128.00;-1.00;-1.00;100886;1306;1004462;-34
2023/01/09 01:46:19;;;;;;;31.20;14.00;;;;;;;-128.00;-1.00;-1.00;100873;1306;1005462;-32
2023/01/09 01:48:45;;;;;;;37.10;14.40;;;;;;;-128.00;-1.00;-1.00;100861;1306;1004850;-30
2023/01/09 01:51:13;;;;;;;36.70;14.10;;;;;;;-128.00;-1.00;-1.00;100948;1306;1003797;-31
2023/01/09 01:53:40;;;;;;;29.40;14.00;;;;;;;-128.00;-1.00;-1.00;100941;1307;1004255;-33
2023/01/09 01:56:20;;;;;;;23.00;12.20;;;;;;;-128.00;-1.00;-1.00;100893;1306;1003699;-30
2023/01/09 01:58:49;;;;;;;27.80;13.00;;;;;;;-128.00;-1.00;-1.00;100833;1306;1004186;-33
2023/01/09 02:01:15;;;;;;;28.00;13.40;;;;;;;-128.00;-1.00;-1.00;100916;1306;1003836;-33
2023/01/09 02:03:41;;;;;;;27.80;12.80;;;;;;;-128.00;-1.00;-1.00;100903;1307;1004681;-30
2023/01/09 02:06:08;;;;;;;25.20;12.70;;;;;;;-128.00;-1.00;-1.00;100854;1307;1004560;-30
2023/01/09 02:08:33;;;;;;;24.50;12.10;;;;;;;-128.00;-1.00;-1.00;100920;1306;1003843;-33
2023/01/09 02:11:00;;;;;;;24.50;10.70;;;;;;;-128.00;-1.00;-1.00;100879;1306;1004904;-33
2023/01/09 02:13:26;;;;;;;36.10;14.50;;;;;;;-128.00;-1.00;-1.00;100735;1304;1003799;-30
2023/01/09 02:16:08;;;;;;;35.80;16.80;;;;;;;-128.00;-1.00;-1.00;100903;1306;1004213;-30
2023/01/09 02:18:42;;;;;;;26.50;12.60;;;;;;;-128.00;-1.00;-1.00;100876;1306;1004914;-29
2023/01/09 02:21:14;;;;;;;45.00;19.30;;;;;;;-128.00;-1.00;-1.00;100917;1306;1003773;-34
2023/01/09 02:24:12;;;;;;;42.60;17.10;;;;;;;-128.00;-1.00;-1.00;100848;1302;1004743;-34
2023/01/09 02:26:59;;;;;;;47.40;19.60;;;;;;;-128.00;-1.00;-1.00;100863;1306;1004178;-30
2023/01/09 02:29:56;;;;;;;65.50;22.20;;;;;;;-128.00;-1.00;-1.00;100860;1306;1003934;-30
2023/01/09 02:32:40;;;;;;;42.10;17.30;;;;;;;-128.00;-1.00;-1.00;100903;1306;1004066;-30
2023/01/09 02:35:20;;;;;;;48.80;21.60;;;;;;;-128.00;-1.00;-1.00;100936;1301;1004406;-28
2023/01/09 02:38:16;;;;;;;85.80;31.90;;;;;;;-128.00;-1.00;-1.00;100857;1306;1004527;-31
2023/01/09 02:41:04;;;;;;;68.20;22.00;;;;;;;-128.00;-1.00;-1.00;100910;1306;1004492;-34
2023/01/09 02:43:30;;;;;;;63.10;23.50;;;;;;;-128.00;-1.00;-1.00;100692;1306;1004707;-32
2023/01/09 02:45:56;;;;;;;41.30;17.80;;;;;;;-128.00;-1.00;-1.00;100901;1306;1004358;-32
2023/01/09 02:48:22;;;;;;;51.40;19.40;;;;;;;-128.00;-1.00;-1.00;100826;1306;1004444;-33
2023/01/09 02:51:02;;;;;;;18.30;10.80;;;;;;;-128.00;-1.00;-1.00;100877;1307;1004962;-34
2023/01/09 02:53:51;;;;;;;49.80;19.30;;;;;;;-128.00;-1.00;-1.00;100926;1306;1004292;-34
2023/01/09 02:56:49;;;;;;;32.00;15.80;;;;;;;-128.00;-1.00;-1.00;100909;1307;1004094;-30
2023/01/09 02:59:31;;;;;;;40.20;15.30;;;;;;;-128.00;-1.00;-1.00;100847;1306;1004729;-34
2023/01/09 03:02:19;;;;;;;32.90;12.90;;;;;;;-128.00;-1.00;-1.00;100821;1306;1005192;-31
2023/01/09 03:05:10;;;;;;;50.90;22.60;;;;;;;-128.00;-1.00;-1.00;100713;1307;1005469;-30
2023/01/09 03:07:41;;;;;;;61.20;22.60;;;;;;;-128.00;-1.00;-1.00;100813;1306;1005308;-34
2023/01/09 03:10:16;;;;;;;63.90;25.60;;;;;;;-128.00;-1.00;-1.00;100821;1306;1004733;-34
2023/01/09 03:12:42;;;;;;;62.90;25.70;;;;;;;-128.00;-1.00;-1.00;100927;1306;1004419;-34
2023/01/09 03:15:10;;;;;;;61.90;27.20;;;;;;;-128.00;-1.00;-1.00;100861;1306;1004619;-30
2023/01/09 03:17:38;;;;;;;49.20;23.40;;;;;;;-128.00;-1.00;-1.00;100914;1306;1004898;-33
2023/01/09 03:20:05;;;;;;;43.50;22.60;;;;;;;-128.00;-1.00;-1.00;100876;1307;1004672;-30
2023/01/09 03:22:31;;;;;;;64.90;27.90;;;;;;;-128.00;-1.00;-1.00;100908;1307;1003634;-34
2023/01/09 03:24:57;;;;;;;45.10;19.20;;;;;;;-128.00;-1.00;-1.00;100855;1307;1004799;-34
2023/01/09 03:27:23;;;;;;;44.60;17.00;;;;;;;-128.00;-1.00;-1.00;100849;1306;1005458;-34
2023/01/09 03:29:52;;;;;;;47.60;22.20;;;;;;;-128.00;-1.00;-1.00;100890;1306;1003957;-30
2023/01/09 03:32:18;;;;;;;44.80;17.10;;;;;;;-128.00;-1.00;-1.00;100736;1304;1004110;-34
2023/01/09 03:34:44;;;;;;;38.60;19.70;;;;;;;-128.00;-1.00;-1.00;100910;1306;1004960;-30
2023/01/09 03:37:10;;;;;;;45.40;17.10;;;;;;;-128.00;-1.00;-1.00;100864;1306;1004928;-34
2023/01/09 03:39:36;;;;;;;52.60;21.30;;;;;;;-128.00;-1.00;-1.00;100745;1306;1004849;-35
2023/01/09 03:42:01;;;;;;;52.20;22.90;;;;;;;-128.00;-1.00;-1.00;100864;1307;1005087;-34
2023/01/09 03:44:27;;;;;;;49.60;17.80;;;;;;;-128.00;-1.00;-1.00;100865;1306;1004792;-30
2023/01/09 03:46:53;;;;;;;45.70;16.60;;;;;;;-128.00;-1.00;-1.00;100891;1306;1004066;-35
2023/01/09 03:49:19;;;;;;;53.60;20.70;;;;;;;-128.00;-1.00;-1.00;100905;1306;1004868;-35
2023/01/09 03:51:44;;;;;;;60.70;20.80;;;;;;;-128.00;-1.00;-1.00;100882;1306;1005023;-35
2023/01/09 03:54:10;;;;;;;56.30;19.20;;;;;;;-128.00;-1.00;-1.00;100764;1306;1003835;-34
2023/01/09 03:56:36;;;;;;;49.10;19.80;;;;;;;-128.00;-1.00;-1.00;100842;1306;1004373;-31
2023/01/09 03:59:01;;;;;;;42.90;17.00;;;;;;;-128.00;-1.00;-1.00;100702;1306;1004360;-35
2023/01/09 04:01:27;;;;;;;36.80;16.90;;;;;;;-128.00;-1.00;-1.00;100737;1306;1004343;-31
2023/01/09 04:03:53;;;;;;;48.20;18.20;;;;;;;-128.00;-1.00;-1.00;100878;1306;1005191;-31
2023/01/09 04:06:19;;;;;;;41.50;17.10;;;;;;;-128.00;-1.00;-1.00;100881;1307;1004159;-34
2023/01/09 04:08:45;;;;;;;51.20;18.30;;;;;;;-128.00;-1.00;-1.00;100960;1306;1004343;-29
2023/01/09 04:11:11;;;;;;;46.00;18.90;;;;;;;-128.00;-1.00;-1.00;100886;1306;1004391;-29
2023/01/09 04:13:37;;;;;;;45.40;21.20;;;;;;;-128.00;-1.00;-1.00;100707;1306;1003925;-33
2023/01/09 04:16:04;;;;;;;42.00;17.20;;;;;;;-128.00;-1.00;-1.00;100938;1306;1005028;-32
2023/01/09 04:18:30;;;;;;;50.00;18.30;;;;;;;-128.00;-1.00;-1.00;100902;1306;1004365;-28
2023/01/09 04:20:55;;;;;;;45.20;18.60;;;;;;;-128.00;-1.00;-1.00;100701;1307;1004686;-33
2023/01/09 04:23:21;;;;;;;39.20;18.10;;;;;;;-128.00;-1.00;-1.00;100868;1307;1004677;-35
2023/01/09 04:25:47;;;;;;;50.70;19.70;;;;;;;-128.00;-1.00;-1.00;100719;1306;1005127;-30
2023/01/09 04:28:13;;;;;;;50.00;21.80;;;;;;;-128.00;-1.00;-1.00;100912;1306;1004431;-34
2023/01/09 04:30:39;;;;;;;71.80;23.00;;;;;;;-128.00;-1.00;-1.00;100835;1307;1005266;-30
2023/01/09 04:33:05;;;;;;;50.70;23.10;;;;;;;-128.00;-1.00;-1.00;100913;1307;1004780;-34
2023/01/09 04:35:31;;;;;;;69.40;25.00;;;;;;;-128.00;-1.00;-1.00;100857;1306;1004730;-35
2023/01/09 05:16:50;;;;;;;63.90;28.30;;;;;;;-102.06;19.20;19614.65;101010;1296;1545185;-31
2023/01/09 05:19:16;;;;;;;56.40;25.90;;;;;;;-128.00;-1.00;-1.00;100711;1303;1002877;-31
2023/01/09 05:21:42;;;;;;;48.70;21.30;;;;;;;-128.00;-1.00;-1.00;101205;1304;1003459;-28
2023/01/09 05:24:08;;;;;;;36.40;15.60;;;;;;;-128.00;-1.00;-1.00;101148;1304;1005773;-34
2023/01/09 05:26:33;;;;;;;32.40;17.60;;;;;;;-128.00;-1.00;-1.00;101165;1304;1003629;-30
2023/01/09 05:28:59;;;;;;;40.60;19.30;;;;;;;-128.00;-1.00;-1.00;101117;1304;1002846;-30
2023/01/09 05:31:25;;;;;;;52.20;19.30;;;;;;;-128.00;-1.00;-1.00;101198;1304;1003361;-34
2023/01/09 05:33:52;;;;;;;43.80;20.10;;;;;;;-128.00;-1.00;-1.00;100974;1304;1004301;-33
2023/01/09 05:36:18;;;;;;;43.80;20.10;;;;;;;-128.00;-1.00;-1.00;101203;1304;1003608;-31
2023/01/09 05:38:43;;;;;;;55.00;18.80;;;;;;;-128.00;-1.00;-1.00;101122;1304;1003938;-30
2023/01/09 05:41:09;;;;;;;35.70;15.10;;;;;;;-128.00;-1.00;-1.00;101104;1304;1003600;-33
2023/01/09 05:43:35;;;;;;;40.70;20.60;;;;;;;-128.00;-1.00;-1.00;101060;1304;1003521;-34
2023/01/09 05:46:01;;;;;;;59.10;27.40;;;;;;;-128.00;-1.00;-1.00;100879;1304;1003658;-34
2023/01/09 05:48:27;;;;;;;65.10;33.50;;;;;;;-128.00;-1.00;-1.00;101269;1304;1003847;-34
2023/01/09 05:50:52;;;;;;;53.10;20.90;;;;;;;-128.00;-1.00;-1.00;101048;1304;1003295;-34
2023/01/09 05:53:18;;;;;;;41.00;19.00;;;;;;;-128.00;-1.00;-1.00;100930;1304;1003408;-34
2023/01/09 05:55:44;;;;;;;34.10;16.90;;;;;;;-128.00;-1.00;-1.00;100947;1304;1003337;-30
2023/01/09 05:58:10;;;;;;;40.30;18.80;;;;;;;-128.00;-1.00;-1.00;101147;1304;1005088;-30
2023/01/09 06:00:36;;;;;;;39.30;18.20;;;;;;;-128.00;-1.00;-1.00;101126;1304;1003063;-34
2023/01/09 06:03:01;;;;;;;36.70;18.00;;;;;;;-128.00;-1.00;-1.00;101245;1304;1003546;-33
2023/01/09 06:05:27;;;;;;;44.40;17.50;;;;;;;-128.00;-1.00;-1.00;101110;1304;1004328;-33
2023/01/09 06:07:53;;;;;;;33.30;17.20;;;;;;;-128.00;-1.00;-1.00;101059;1304;1004384;-36
2023/01/09 06:10:19;;;;;;;28.90;15.10;;;;;;;-128.00;-1.00;-1.00;101187;1304;1003165;-34
2023/01/09 06:12:48;;;;;;;44.50;19.40;;;;;;;-128.00;-1.00;-1.00;101248;1304;1004003;-30
2023/01/09 06:15:14;;;;;;;37.60;17.40;;;;;;;-128.00;-1.00;-1.00;101071;1304;1003494;-30
2023/01/09 06:17:40;;;;;;;38.80;20.80;;;;;;;-128.00;-1.00;-1.00;101092;1304;1002973;-30
2023/01/09 06:20:07;;;;;;;37.40;16.80;;;;;;;-128.00;-1.00;-1.00;101122;1305;1003332;-33
2023/01/09 06:22:32;;;;;;;40.80;19.10;;;;;;;-128.00;-1.00;-1.00;101246;1305;1003484;-29
2023/01/09 06:24:58;;;;;;;41.10;21.40;;;;;;;-128.00;-1.00;-1.00;101126;1304;1005519;-33
2023/01/09 06:27:24;;;;;;;36.30;20.30;;;;;;;-128.00;-1.00;-1.00;101063;1301;1004090;-29
2023/01/09 06:29:50;;;;;;;31.20;15.60;;;;;;;-128.00;-1.00;-1.00;101092;1305;1003925;-33
2023/01/09 06:32:16;;;;;;;44.60;20.10;;;;;;;-128.00;-1.00;-1.00;101116;1305;1003272;-29
2023/01/09 06:34:42;;;;;;;50.50;18.50;;;;;;;-128.00;-1.00;-1.00;101312;1305;1003855;-33
2023/01/09 06:37:07;;;;;;;37.00;17.90;;;;;;;-128.00;-1.00;-1.00;101067;1305;1004201;-30
2023/01/09 06:39:33;;;;;;;46.80;19.60;;;;;;;-128.00;-1.00;-1.00;100967;1305;1003564;-34
2023/01/09 06:41:59;;;;;;;32.80;16.50;;;;;;;-128.00;-1.00;-1.00;101140;1305;1004093;-31
2023/01/09 06:44:25;;;;;;;36.40;19.40;;;;;;;-128.00;-1.00;-1.00;101150;1305;1003119;-30
2023/01/09 06:46:51;;;;;;;31.40;17.40;;;;;;;-128.00;-1.00;-1.00;101106;1305;1004844;-30
2023/01/09 06:49:22;;;;;;;34.60;18.40;;;;;;;-128.00;-1.00;-1.00;100858;1305;1003117;-29
2023/01/09 06:51:49;;;;;;;39.60;19.20;;;;;;;-128.00;-1.00;-1.00;101181;1304;1003308;-29
2023/01/09 06:54:16;;;;;;;37.90;18.30;;;;;;;-128.00;-1.00;-1.00;101116;1305;1003563;-33
2023/01/09 06:56:42;;;;;;;31.40;15.30;;;;;;;-128.00;-1.00;-1.00;101181;1305;1002886;-33
2023/01/09 06:59:08;;;;;;;37.40;17.40;;;;;;;-128.00;-1.00;-1.00;101141;1305;1003544;-33
2023/01/09 07:01:34;;;;;;;32.10;18.30;;;;;;;-128.00;-1.00;-1.00;101106;1304;1003072;-30
2023/01/09 07:04:00;;;;;;;27.30;15.80;;;;;;;-128.00;-1.00;-1.00;101269;1305;1002998;-34
2023/01/09 07:06:26;;;;;;;33.30;16.70;;;;;;;-128.00;-1.00;-1.00;101207;1304;1002811;-34
2023/01/09 07:08:51;;;;;;;35.50;18.30;;;;;;;-128.00;-1.00;-1.00;100956;1304;1003933;-30
2023/01/09 07:11:17;;;;;;;35.10;16.70;;;;;;;-128.00;-1.00;-1.00;101161;1304;1002804;-33
2023/01/09 07:13:43;;;;;;;26.40;13.60;;;;;;;-128.00;-1.00;-1.00;101123;1304;1002947;-34
2023/01/09 07:16:08;;;;;;;25.40;14.70;;;;;;;-128.00;-1.00;-1.00;101106;1304;1003506;-29
2023/01/09 07:18:34;;;;;;;23.70;14.20;;;;;;;-128.00;-1.00;-1.00;100992;1304;1003555;-29
2023/01/09 07:21:00;;;;;;;33.60;16.30;;;;;;;-128.00;-1.00;-1.00;101076;1304;1002897;-30
2023/01/09 07:23:26;;;;;;;32.30;18.00;;;;;;;-128.00;-1.00;-1.00;101097;1304;1003044;-30
2023/01/09 07:25:51;;;;;;;34.20;16.90;;;;;;;-128.00;-1.00;-1.00;100954;1304;1003574;-33
2023/01/09 07:28:17;;;;;;;45.40;20.10;;;;;;;-128.00;-1.00;-1.00;101269;1304;1003697;-32
2023/01/09 07:30:45;;;;;;;44.70;17.90;;;;;;;-128.00;-1.00;-1.00;101091;1301;1003245;-34
2023/01/09 07:33:10;;;;;;;40.40;18.40;;;;;;;-128.00;-1.00;-1.00;100906;1305;1003278;-30
2023/01/09 07:35:36;;;;;;;32.00;18.10;;;;;;;-128.00;-1.00;-1.00;101220;1305;1003239;-34
2023/01/09 07:38:02;;;;;;;29.70;16.30;;;;;;;-128.00;-1.00;-1.00;101063;1304;1003353;-30
2023/01/09 07:40:28;;;;;;;27.90;15.90;;;;;;;-128.00;-1.00;-1.00;100992;1305;1002559;-35
2023/01/09 07:42:54;;;;;;;34.70;16.30;;;;;;;-128.00;-1.00;-1.00;101176;1305;1003168;-34
2023/01/09 07:45:20;;;;;;;36.90;20.50;;;;;;;-128.00;-1.00;-1.00;101047;1304;1003417;-31
2023/01/09 07:47:46;;;;;;;58.50;22.90;;;;;;;-128.00;-1.00;-1.00;101107;1304;1003615;-34
2023/01/09 07:50:12;;;;;;;145.80;37.80;;;;;;;-128.00;-1.00;-1.00;100974;1305;1003398;-31
2023/01/09 07:52:38;;;;;;;81.50;29.40;;;;;;;-128.00;-1.00;-1.00;101079;1304;1004466;-33
2023/01/09 07:55:04;;;;;;;111.60;43.30;;;;;;;-128.00;-1.00;-1.00;101287;1304;1002605;-34
2023/01/09 07:57:29;;;;;;;82.30;35.10;;;;;;;-128.00;-1.00;-1.00;101104;1304;1003616;-33
2023/01/09 07:59:59;;;;;;;98.60;36.30;;;;;;;-128.00;-1.00;-1.00;100764;1305;1003730;-34
2023/01/09 08:02:26;;;;;;;84.50;33.00;;;;;;;-128.00;-1.00;-1.00;101261;1304;1004703;-30
2023/01/09 08:04:51;;;;;;;91.20;36.60;;;;;;;-128.00;-1.00;-1.00;101090;1305;1003861;-30
2023/01/09 08:07:17;;;;;;;64.90;26.00;;;;;;;-128.00;-1.00;-1.00;101191;1304;1002576;-31
2023/01/09 08:09:43;;;;;;;89.20;33.10;;;;;;;-128.00;-1.00;-1.00;101124;1304;1004139;-31
2023/01/09 08:12:09;;;;;;;102.80;33.20;;;;;;;-128.00;-1.00;-1.00;101276;1304;1003510;-31
2023/01/09 08:14:34;;;;;;;69.70;29.30;;;;;;;-128.00;-1.00;-1.00;101129;1304;1003620;-33
2023/01/09 08:17:01;;;;;;;43.70;21.90;;;;;;;-128.00;-1.00;-1.00;101267;1304;1003512;-34
2023/01/09 08:19:27;;;;;;;40.00;18.60;;;;;;;-128.00;-1.00;-1.00;101112;1304;1003417;-30
2023/01/09 08:21:53;;;;;;;36.40;18.50;;;;;;;-128.00;-1.00;-1.00;100948;1304;1003940;-31
2023/01/09 08:24:19;;;;;;;28.30;15.00;;;;;;;-128.00;-1.00;-1.00;101156;1304;1002969;-35
2023/01/09 08:26:45;;;;;;;28.40;14.40;;;;;;;-128.00;-1.00;-1.00;101007;1304;1003624;-30
2023/01/09 08:29:10;;;;;;;23.50;13.30;;;;;;;-128.00;-1.00;-1.00;101070;1304;1003109;-31
2023/01/09 08:31:37;;;;;;;26.90;14.60;;;;;;;-128.00;-1.00;-1.00;101123;1304;1002889;-32
2023/01/09 08:34:02;;;;;;;23.20;11.60;;;;;;;-128.00;-1.00;-1.00;101046;1304;1004172;-30
2023/01/09 08:36:28;;;;;;;23.70;14.60;;;;;;;-128.00;-1.00;-1.00;101160;1304;1003609;-34
2023/01/09 08:38:54;;;;;;;20.30;11.50;;;;;;;-128.00;-1.00;-1.00;101165;1304;1003247;-30
2023/01/09 08:49:13;;;;;;;22.40;14.30;;;;;;;-128.00;-1.00;-1.00;101059;1304;1002754;-35
2023/01/09 08:51:38;;;;;;;21.00;13.40;;;;;;;-128.00;-1.00;-1.00;101089;1304;1002912;-35
2023/01/09 08:54:05;;;;;;;21.50;11.20;;;;;;;-128.00;-1.00;-1.00;101081;1304;1004202;-35
2023/01/09 08:56:30;;;;;;;20.80;13.50;;;;;;;-128.00;-1.00;-1.00;101130;1304;1003852;-32
2023/01/09 08:58:56;;;;;;;19.60;12.60;;;;;;;-128.00;-1.00;-1.00;101158;1304;1002911;-35
2023/01/09 09:01:22;;;;;;;16.40;10.90;;;;;;;-128.00;-1.00;-1.00;100906;1304;1003814;-32
2023/01/09 09:03:47;;;;;;;25.40;14.30;;;;;;;-128.00;-1.00;-1.00;101235;1304;1003039;-31
2023/01/09 09:06:13;;;;;;;25.00;13.70;;;;;;;-128.00;-1.00;-1.00;100737;1304;1003257;-31
2023/01/09 09:08:39;;;;;;;21.90;11.50;;;;;;;-128.00;-1.00;-1.00;101145;1304;1004196;-30
2023/01/09 09:11:05;;;;;;;34.80;14.60;;;;;;;-128.00;-1.00;-1.00;101079;1304;1004049;-31
2023/01/09 09:13:30;;;;;;;27.40;16.00;;;;;;;-128.00;-1.00;-1.00;101139;1304;1003500;-34
2023/01/09 09:15:56;;;;;;;30.40;16.50;;;;;;;-128.00;-1.00;-1.00;101267;1304;1002985;-34
2023/01/09 09:18:22;;;;;;;40.20;15.00;;;;;;;-128.00;-1.00;-1.00;101196;1304;1003102;-32
2023/01/09 09:20:48;;;;;;;30.30;15.30;;;;;;;-128.00;-1.00;-1.00;101137;1304;1002440;-32
2023/01/09 09:23:13;;;;;;;25.70;12.10;;;;;;;-128.00;-1.00;-1.00;101102;1304;1003698;-35
2023/01/09 09:25:39;;;;;;;25.40;14.50;;;;;;;-128.00;-1.00;-1.00;101121;1304;1004091;-31
2023/01/09 09:28:05;;;;;;;21.50;12.60;;;;;;;-128.00;-1.00;-1.00;101097;1304;1003832;-30
2023/01/09 09:30:31;;;;;;;19.80;13.80;;;;;;;-128.00;-1.00;-1.00;101267;1304;1003408;-36
2023/01/09 09:32:57;;;;;;;22.00;12.10;;;;;;;-128.00;-1.00;-1.00;101193;1304;1003484;-31
2023/01/09 09:35:23;;;;;;;27.00;12.50;;;;;;;-128.00;-1.00;-1.00;101100;1304;1003348;-33
2023/01/09 09:37:56;;;;;;;22.30;13.50;;;;;;;-128.00;-1.00;-1.00;101151;1304;1004012;-32
2023/01/09 09:40:46;;;;;;;18.70;12.30;;;;;;;-128.00;-1.00;-1.00;101135;1304;1003071;-31
2023/01/09 09:46:31;;;;;;;17.00;11.20;;;;;;;-128.00;-1.00;-1.00;101136;1304;1003576;-34
2023/01/09 09:49:01;;;;;;;22.30;12.10;;;;;;;-128.00;-1.00;-1.00;101152;1304;1004168;-36
2023/01/09 09:51:41;;;;;;;23.30;11.30;;;;;;;-128.00;-1.00;-1.00;101192;1304;1003113;-32
2023/01/09 09:54:13;;;;;;;17.30;9.60;;;;;;;-128.00;-1.00;-1.00;101212;1304;1003579;-36
2023/01/09 09:56:45;;;;;;;16.20;9.90;;;;;;;-128.00;-1.00;-1.00;100873;1304;1002919;-36
2023/01/09 09:59:16;;;;;;;27.00;10.80;;;;;;;-128.00;-1.00;-1.00;101176;1304;1002846;-36
2023/01/09 10:01:45;;;;;;;15.90;9.90;;;;;;;-128.00;-1.00;-1.00;101075;1304;1002954;-32
2023/01/09 10:04:14;;;;;;;17.70;10.10;;;;;;;-128.00;-1.00;-1.00;101011;1304;1003128;-34
2023/01/09 10:06:42;;;;;;;17.10;9.00;;;;;;;-128.00;-1.00;-1.00;101000;1304;1004215;-31
2023/01/09 10:09:39;;;;;;;14.70;9.30;;;;;;;-128.00;-1.00;-1.00;101185;1304;1003419;-32
2023/01/09 10:12:29;;;;;;;17.50;8.20;;;;;;;-128.00;-1.00;-1.00;101186;1305;1003393;-35
2023/01/09 10:14:56;;;;;;;13.70;8.60;;;;;;;-128.00;-1.00;-1.00;101125;1304;1003271;-31
2023/01/09 10:17:38;;;;;;;14.80;8.70;;;;;;;-128.00;-1.00;-1.00;101214;1304;1003431;-34
2023/01/09 10:20:22;;;;;;;11.60;8.20;;;;;;;-128.00;-1.00;-1.00;101152;1302;1002700;-30
2023/01/09 10:23:11;;;;;;;13.80;9.20;;;;;;;-128.00;-1.00;-1.00;101126;1304;1003608;-31
2023/01/09 10:25:52;;;;;;;20.00;7.50;;;;;;;-128.00;-1.00;-1.00;101142;1305;1004548;-31
2023/01/09 10:31:54;;;;;;;10.10;6.20;;;;;;;-128.00;-1.00;-1.00;101123;1305;1002533;-32
2023/01/09 10:34:32;;;;;;;11.00;6.10;;;;;;;-128.00;-1.00;-1.00;101198;1304;1003894;-31
2023/01/09 10:37:07;;;;;;;9.60;4.50;;;;;;;-128.00;-1.00;-1.00;101121;1304;1003073;-31
2023/01/09 10:39:53;;;;;;;5.80;4.40;;;;;;;-128.00;-1.00;-1.00;101092;1304;1002921;-34
2023/01/09 10:42:36;;;;;;;6.30;5.00;;;;;;;-128.00;-1.00;-1.00;101084;1304;1004099;-35
2023/01/09 10:45:23;;;;;;;4.90;4.40;;;;;;;-128.00;-1.00;-1.00;101071;1304;1003728;-34
2023/01/09 10:47:49;;;;;;;9.00;3.30;;;;;;;-128.00;-1.00;-1.00;101049;1304;1003714;-35
2023/01/09 10:50:20;;;;;;;4.40;3.50;;;;;;;-128.00;-1.00;-1.00;101115;1304;1004912;-35
2023/01/09 10:52:48;;;;;;;9.20;3.70;;;;;;;-128.00;-1.00;-1.00;101103;1304;1003798;-31
2023/01/09 10:55:33;;;;;;;6.30;1.50;;;;;;;-128.00;-1.00;-1.00;101246;1304;1003630;-32
2023/01/09 10:58:01;;;;;;;3.50;2.60;;;;;;;-128.00;-1.00;-1.00;100936;1304;1002789;-31
2023/01/09 11:00:27;;;;;;;4.60;2.90;;;;;;;-128.00;-1.00;-1.00;101138;1304;1003182;-31
2023/01/09 11:02:54;;;;;;;9.70;3.30;;;;;;;-128.00;-1.00;-1.00;101131;1304;1003169;-34
2023/01/09 11:05:24;;;;;;;6.00;2.50;;;;;;;-128.00;-1.00;-1.00;101219;1304;1003172;-32
2023/01/09 11:46:08;;;;;;;4.00;3.30;;;;;;;-101.00;19.20;19573.39;100702;1304;1547317;-34
2023/01/09 11:48:40;;;;;;;5.60;3.70;;;;;;;-128.00;-1.00;-1.00;99290;1299;1003130;-35
2023/01/09 11:51:16;;;;;;;7.30;2.80;;;;;;;-128.00;-1.00;-1.00;100354;1304;1004167;-38
2023/01/09 11:53:56;;;;;;;6.60;2.70;;;;;;;-128.00;-1.00;-1.00;100458;1304;1003049;-33
2023/01/09 11:56:22;;;;;;;6.20;2.60;;;;;;;-128.00;-1.00;-1.00;94713;1304;1003356;-32
2023/01/09 11:58:47;;;;;;;3.80;3.00;;;;;;;-128.00;-1.00;-1.00;93891;1304;1004866;-33
2023/01/09 12:01:37;;;;;;;6.20;3.60;;;;;;;-128.00;-1.00;-1.00;74465;1304;2003496;-32
2023/01/09 12:04:23;;;;;;;4.60;2.40;;;;;;;-128.00;-1.00;-1.00;81648;1304;2003827;-32
2023/01/09 12:07:07;;;;;;;5.80;2.40;;;;;;;-128.00;-1.00;-1.00;96099;1301;1002960;-36
2023/01/09 12:10:04;;;;;;;7.20;4.00;;;;;;;-128.00;-1.00;-1.00;91782;1304;1004671;-36
2023/01/09 12:12:40;;;;;;;3.50;1.90;;;;;;;-128.00;-1.00;-1.00;75232;1304;2002505;-36
2023/01/09 12:15:23;;;;;;;3.80;2.10;;;;;;;-128.00;-1.00;-1.00;79481;1304;2002981;-33
2023/01/09 12:18:14;;;;;;;2.30;1.50;;;;;;;-128.00;-1.00;-1.00;99026;1304;1003323;-36
2023/01/09 12:21:12;;;;;;;3.30;2.10;;;;;;;-128.00;-1.00;-1.00;92507;1304;2002945;-32
2023/01/09 12:24:09;;;;;;;9.40;2.20;;;;;;;-128.00;-1.00;-1.00;94718;1304;1003369;-33
2023/01/09 12:26:59;;;;;;;4.80;2.50;;;;;;;-128.00;-1.00;-1.00;101198;1304;1003123;-31
2023/01/09 12:29:34;;;;;;;2.20;1.50;;;;;;;-128.00;-1.00;-1.00;100425;1304;1004499;-31
2023/01/09 12:32:26;;;;;;;3.60;2.60;;;;;;;-128.00;-1.00;-1.00;101257;1304;1002890;-31
2023/01/09 12:35:06;;;;;;;3.80;2.50;;;;;;;-128.00;-1.00;-1.00;101296;1304;1005057;-34
2023/01/09 12:37:56;;;;;;;3.00;1.70;;;;;;;-128.00;-1.00;-1.00;101203;1304;1003606;-31
2023/01/09 12:40:31;;;;;;;2.80;1.80;;;;;;;-128.00;-1.00;-1.00;101130;1304;1003769;-31
2023/01/09 12:43:20;;;;;;;2.00;1.60;;;;;;;-128.00;-1.00;-1.00;101284;1304;1003855;-30
2023/01/09 12:45:57;;;;;;;6.60;2.00;;;;;;;-128.00;-1.00;-1.00;101187;1304;1003758;-31
2023/01/09 12:48:50;;;;;;;3.60;2.50;;;;;;;-128.00;-1.00;-1.00;101159;1304;1003430;-35
2023/01/09 12:51:29;;;;;;;6.10;3.40;;;;;;;-128.00;-1.00;-1.00;101257;1304;1003937;-31
2023/01/09 12:54:08;;;;;;;9.10;5.60;;;;;;;-128.00;-1.00;-1.00;101228;1301;1002744;-32